Time;durP1;ratioP1;P1;durP2;ratioP2;P2;SDS_P1;SDS_P2;PMS_P1;PMS_P2;Temp;Humidity;BMP_temperature;BMP_pressure;BME280_temperature;BME280_humidity;BME280_pressure;Samples;Min_cycle;Max_cycle;Signal;HPM_P1;HPM_P2
2022/01/11 00:01:42;;;;;;;48.33;29.67;;;0.50;96.70;;;;;;5160473;27;20081;-80
2022/01/11 00:04:12;;;;;;;42.42;29.10;;;0.50;96.60;;;;;;5143069;27;20045;-80
2022/01/11 00:06:57;;;;;;;46.22;28.80;;;0.50;96.60;;;;;;5160179;27;20049;-79
2022/01/11 00:09:34;;;;;;;43.08;27.27;;;0.50;96.60;;;;;;5128836;27;20438;-79
2022/01/11 00:12:00;;;;;;;46.50;28.13;;;0.50;96.60;;;;;;5142616;27;20125;-78
2022/01/11 00:14:26;;;;;;;45.40;27.90;;;0.50;96.70;;;;;;5159848;27;20117;-78
2022/01/11 00:16:51;;;;;;;39.13;27.02;;;0.50;96.80;;;;;;5159891;27;20038;-79
2022/01/11 00:19:17;;;;;;;43.03;28.17;;;0.50;96.70;;;;;;5159862;27;20038;-79
2022/01/11 00:21:48;;;;;;;42.17;27.63;;;0.50;96.70;;;;;;5141686;27;20034;-78
2022/01/11 00:24:28;;;;;;;39.20;25.33;;;0.50;96.70;;;;;;5143575;27;20049;-79
2022/01/11 00:27:04;;;;;;;35.83;24.48;;;0.60;96.70;;;;;;5160088;27;20049;-79
2022/01/11 00:29:31;;;;;;;40.00;26.23;;;0.60;96.70;;;;;;5143965;27;20050;-79
2022/01/11 00:32:03;;;;;;;40.47;23.38;;;0.60;96.60;;;;;;5159468;27;20054;-79
2022/01/11 00:34:39;;;;;;;41.45;25.17;;;0.60;96.60;;;;;;5142096;27;20046;-79
2022/01/11 00:37:06;;;;;;;34.50;23.20;;;0.60;96.50;;;;;;5159923;27;20091;-79
2022/01/11 00:39:32;;;;;;;32.03;23.13;;;0.60;96.40;;;;;;5142394;27;20075;-79
2022/01/11 00:41:58;;;;;;;31.42;21.95;;;0.60;96.40;;;;;;5142437;27;20118;-79
2022/01/11 00:44:24;;;;;;;32.28;21.80;;;0.60;96.40;;;;;;5142074;27;20034;-77
2022/01/11 00:46:50;;;;;;;31.63;22.45;;;0.60;96.40;;;;;;5142004;27;20041;-78
2022/01/11 00:49:16;;;;;;;30.88;20.38;;;0.60;96.40;;;;;;5125248;27;20486;-79
2022/01/11 00:51:42;;;;;;;31.70;22.27;;;0.60;96.30;;;;;;5142180;27;20049;-79
2022/01/11 00:54:08;;;;;;;30.88;21.42;;;0.60;96.30;;;;;;5159145;27;20545;-77
2022/01/11 00:56:34;;;;;;;33.75;22.58;;;0.60;96.30;;;;;;5141893;27;20038;-79
2022/01/11 00:59:00;;;;;;;34.63;21.67;;;0.70;96.20;;;;;;5159223;27;20034;-78
2022/01/11 01:01:27;;;;;;;27.58;19.50;;;0.70;96.20;;;;;;5159343;27;20038;-78
2022/01/11 01:03:53;;;;;;;31.58;20.35;;;0.70;96.10;;;;;;5159339;27;20038;-80
2022/01/11 01:06:19;;;;;;;33.13;22.55;;;0.70;96.10;;;;;;5141939;27;20041;-79
2022/01/11 01:08:45;;;;;;;30.70;20.83;;;0.70;96.10;;;;;;5158924;27;20030;-79
2022/01/11 01:11:11;;;;;;;32.38;20.50;;;0.70;96.00;;;;;;5158862;27;20035;-79
2022/01/11 01:13:37;;;;;;;30.95;20.63;;;0.70;96.00;;;;;;5158940;27;20496;-78
2022/01/11 01:16:03;;;;;;;34.70;22.02;;;0.70;96.00;;;;;;5158635;27;20038;-79
2022/01/11 01:18:31;;;;;;;30.35;19.98;;;0.60;96.00;;;;;;5158547;27;20125;-77
2022/01/11 01:20:56;;;;;;;34.95;23.23;;;0.60;96.00;;;;;;5141712;27;20034;-79
2022/01/11 01:23:23;;;;;;;29.83;20.77;;;0.60;96.00;;;;;;5141598;27;20397;-79
2022/01/11 01:25:50;;;;;;;37.67;21.90;;;0.60;96.00;;;;;;5141292;27;20046;-78
2022/01/11 01:28:17;;;;;;;29.95;20.08;;;0.60;96.00;;;;;;5141608;27;20053;-79
2022/01/11 01:30:44;;;;;;;31.88;21.25;;;0.60;96.00;;;;;;5141040;27;20060;-79
2022/01/11 01:33:10;;;;;;;33.30;21.58;;;0.70;96.00;;;;;;5158706;27;20394;-79
2022/01/11 01:35:41;;;;;;;33.67;21.27;;;0.70;96.10;;;;;;5158424;27;20039;-79
2022/01/11 01:38:09;;;;;;;33.40;20.58;;;0.70;96.10;;;;;;5158734;27;20040;-80
2022/01/11 01:40:43;;;;;;;30.65;20.67;;;0.70;96.00;;;;;;5158361;27;20090;-78
2022/01/11 01:43:11;;;;;;;35.97;23.35;;;0.80;96.00;;;;;;5158608;27;20080;-79
2022/01/11 01:45:38;;;;;;;38.45;22.00;;;0.70;96.10;;;;;;5158118;27;20545;-79
2022/01/11 01:48:06;;;;;;;33.83;20.83;;;0.80;96.10;;;;;;5141004;27;20129;-78
2022/01/11 01:50:33;;;;;;;36.20;23.20;;;0.80;96.00;;;;;;5157980;27;20512;-79
2022/01/11 01:53:00;;;;;;;39.45;22.95;;;0.70;96.10;;;;;;5141091;27;20125;-79
2022/01/11 01:55:26;;;;;;;35.30;22.83;;;0.80;96.20;;;;;;5158083;27;20034;-79
2022/01/11 01:57:53;;;;;;;35.67;21.05;;;0.80;96.20;;;;;;5158014;27;20082;-79
2022/01/11 02:00:19;;;;;;;34.45;22.20;;;0.80;96.10;;;;;;5158015;27;20087;-78
2022/01/11 02:02:45;;;;;;;35.25;21.48;;;0.80;96.00;;;;;;5140653;27;20038;-78
2022/01/11 02:05:11;;;;;;;36.25;21.45;;;0.90;96.00;;;;;;5140619;27;20037;-78
2022/01/11 02:07:37;;;;;;;33.45;21.35;;;0.80;96.00;;;;;;5158034;27;20094;-80
2022/01/11 02:10:05;;;;;;;35.15;21.42;;;0.80;96.00;;;;;;5157839;27;20504;-78
2022/01/11 02:12:32;;;;;;;32.80;19.65;;;0.80;96.00;;;;;;5158053;27;20042;-79
2022/01/11 02:14:57;;;;;;;33.05;21.17;;;0.80;96.00;;;;;;5158085;27;20047;-79
2022/01/11 02:17:27;;;;;;;32.13;22.10;;;0.90;96.00;;;;;;5140886;27;20375;-78
2022/01/11 02:19:57;;;;;;;31.85;21.02;;;0.90;95.90;;;;;;5157835;27;20097;-78
2022/01/11 02:22:24;;;;;;;34.95;22.10;;;0.90;95.90;;;;;;5157661;27;20038;-78
2022/01/11 02:24:51;;;;;;;34.45;19.70;;;0.80;95.90;;;;;;5157616;27;20038;-79
2022/01/11 02:27:17;;;;;;;30.90;19.35;;;0.80;95.90;;;;;;5140655;27;20431;-78
2022/01/11 02:29:43;;;;;;;30.95;18.45;;;0.90;95.90;;;;;;5140825;27;20034;-79
2022/01/11 02:32:10;;;;;;;31.10;19.92;;;0.80;95.80;;;;;;5157358;27;20549;-79
2022/01/11 02:34:37;;;;;;;29.40;18.67;;;0.80;95.80;;;;;;5157719;27;20045;-79
2022/01/11 02:37:04;;;;;;;33.65;20.05;;;0.70;95.80;;;;;;5157965;27;20454;-78
2022/01/11 02:39:30;;;;;;;33.10;21.25;;;0.70;95.80;;;;;;5157999;27;20042;-78
2022/01/11 02:41:57;;;;;;;28.60;18.77;;;0.70;95.80;;;;;;5157204;27;20474;-79
2022/01/11 02:44:23;;;;;;;32.70;20.38;;;0.70;95.80;;;;;;5157068;27;20094;-79
2022/01/11 02:46:50;;;;;;;29.15;18.98;;;0.70;95.90;;;;;;5157582;27;20438;-79
2022/01/11 02:49:16;;;;;;;31.25;17.73;;;0.70;95.90;;;;;;5157725;27;20385;-79
2022/01/11 02:51:42;;;;;;;35.55;19.40;;;0.60;95.80;;;;;;5157343;27;20038;-80
2022/01/11 02:54:08;;;;;;;25.58;18.02;;;0.60;95.80;;;;;;5157062;27;20038;-78
2022/01/11 02:56:35;;;;;;;34.53;21.00;;;0.60;95.70;;;;;;5157265;27;20038;-77
2022/01/11 02:59:02;;;;;;;31.52;20.42;;;0.60;95.80;;;;;;5139730;27;20085;-78
2022/01/11 03:01:28;;;;;;;29.75;19.35;;;0.70;95.80;;;;;;5157251;27;20078;-78
2022/01/11 03:03:54;;;;;;;31.98;19.83;;;0.70;95.80;;;;;;5139719;27;20401;-79
2022/01/11 03:06:20;;;;;;;36.50;20.02;;;0.60;95.80;;;;;;5156995;27;20046;-78
2022/01/11 03:08:46;;;;;;;34.67;19.10;;;0.60;95.80;;;;;;5156818;27;20553;-79
2022/01/11 03:11:15;;;;;;;33.40;20.33;;;0.60;95.80;;;;;;5139833;27;20546;-78
2022/01/11 03:13:43;;;;;;;41.00;21.80;;;0.60;95.80;;;;;;5156887;27;20042;-79
2022/01/11 03:16:10;;;;;;;33.28;20.55;;;0.60;95.80;;;;;;5139359;27;20042;-78
2022/01/11 03:18:35;;;;;;;36.90;22.40;;;0.60;95.90;;;;;;5139609;27;20069;-79
2022/01/11 03:21:02;;;;;;;37.63;21.33;;;0.60;95.90;;;;;;5156830;27;20077;-79
2022/01/11 03:23:28;;;;;;;39.67;21.45;;;0.60;95.90;;;;;;5156733;27;20034;-79
2022/01/11 03:25:54;;;;;;;34.45;20.35;;;0.60;95.90;;;;;;5156995;27;20041;-78
2022/01/11 03:28:22;;;;;;;32.30;20.02;;;0.70;95.90;;;;;;5157014;27;20125;-79
2022/01/11 03:30:49;;;;;;;38.42;21.10;;;0.60;95.90;;;;;;5139392;27;20034;-79
2022/01/11 03:33:15;;;;;;;35.40;20.48;;;0.60;95.90;;;;;;5156840;27;20111;-79
2022/01/11 03:35:41;;;;;;;38.20;24.30;;;0.60;95.90;;;;;;5156500;27;20038;-79
2022/01/11 03:38:09;;;;;;;39.00;21.65;;;0.60;95.90;;;;;;5156642;27;20070;-78
2022/01/11 03:40:35;;;;;;;38.88;22.88;;;0.60;95.90;;;;;;5139257;27;20513;-79
2022/01/11 03:43:01;;;;;;;35.65;20.45;;;0.60;95.90;;;;;;5139537;27;20038;-79
2022/01/11 03:45:27;;;;;;;36.25;22.13;;;0.60;95.80;;;;;;5156420;27;20041;-79
2022/01/11 03:47:56;;;;;;;37.03;21.05;;;0.50;95.90;;;;;;5156858;27;20042;-80
2022/01/11 03:50:22;;;;;;;32.15;19.30;;;0.60;95.90;;;;;;5156370;27;20042;-79
2022/01/11 03:52:58;;;;;;;35.83;20.38;;;0.50;95.90;;;;;;5156554;27;20042;-79
2022/01/11 03:55:42;;;;;;;36.00;21.70;;;0.60;95.90;;;;;;5156721;27;20473;-78
2022/01/11 03:58:08;;;;;;;;;;;0.60;95.90;;;;;;5129612;27;20030;-79
2022/01/11 04:00:34;;;;;;;33.20;20.10;;;0.60;95.80;;;;;;5143401;27;20471;-80
2022/01/11 04:02:59;;;;;;;35.78;20.60;;;0.60;95.80;;;;;;5143336;27;20074;-80
2022/01/11 04:05:25;;;;;;;45.55;22.10;;;0.60;95.90;;;;;;5160522;27;20405;-79
2022/01/11 04:07:51;;;;;;;41.83;23.30;;;0.50;95.80;;;;;;5160275;27;20125;-79
2022/01/11 04:10:17;;;;;;;39.40;21.75;;;0.50;95.90;;;;;;5160330;27;20046;-79
2022/01/11 04:12:42;;;;;;;39.40;21.65;;;0.50;95.90;;;;;;5160535;27;20041;-79
2022/01/11 04:15:09;;;;;;;37.53;21.17;;;0.50;95.80;;;;;;5159868;27;20501;-78
2022/01/11 04:17:34;;;;;;;42.53;21.75;;;0.50;95.80;;;;;;5142805;27;20657;-77
2022/01/11 04:20:00;;;;;;;49.78;23.60;;;0.50;95.80;;;;;;5160276;27;20038;-78
2022/01/11 04:22:26;;;;;;;39.58;21.95;;;0.50;95.90;;;;;;5159839;27;20044;-80
2022/01/11 04:24:51;;;;;;;37.60;21.98;;;0.50;95.90;;;;;;5160385;27;20077;-78
2022/01/11 04:27:17;;;;;;;45.38;20.92;;;0.50;95.90;;;;;;5142842;27;20393;-78
2022/01/11 04:29:43;;;;;;;45.72;22.80;;;0.50;95.80;;;;;;5160040;27;20473;-79
2022/01/11 04:32:08;;;;;;;44.17;22.35;;;0.40;95.80;;;;;;5159594;27;20058;-78
2022/01/11 04:34:34;;;;;;;41.10;23.15;;;0.40;95.80;;;;;;5159588;27;20046;-79
2022/01/11 04:37:00;;;;;;;41.55;22.65;;;0.40;95.80;;;;;;5159695;27;20042;-79
2022/01/11 04:39:26;;;;;;;40.83;23.85;;;0.50;95.90;;;;;;5159885;27;20042;-79
2022/01/11 04:41:52;;;;;;;45.22;22.13;;;0.50;95.90;;;;;;5159776;27;20485;-78
2022/01/11 04:44:18;;;;;;;43.63;22.35;;;0.40;95.90;;;;;;5159840;27;20395;-79
2022/01/11 04:46:43;;;;;;;39.22;22.52;;;0.50;95.90;;;;;;5142082;27;20057;-78
2022/01/11 04:49:09;;;;;;;40.75;23.23;;;0.50;95.90;;;;;;5159402;27;20050;-79
2022/01/11 04:51:35;;;;;;;40.10;22.75;;;0.50;96.00;;;;;;5142133;27;20077;-79
2022/01/11 04:54:02;;;;;;;41.80;22.95;;;0.50;95.90;;;;;;5141994;27;20098;-79
2022/01/11 04:56:28;;;;;;;39.45;22.85;;;0.50;96.00;;;;;;5142388;27;20469;-79
2022/01/11 04:58:55;;;;;;;43.03;23.73;;;0.50;95.90;;;;;;5142370;27;20046;-79
2022/01/11 05:01:21;;;;;;;43.50;22.73;;;0.60;95.90;;;;;;5108103;27;20116;-79
2022/01/11 05:03:46;;;;;;;48.53;23.50;;;0.50;95.90;;;;;;5141873;27;20503;-79
2022/01/11 05:06:12;;;;;;;45.88;23.88;;;0.50;95.90;;;;;;5158814;27;20038;-79
2022/01/11 05:08:38;;;;;;;44.67;23.92;;;0.50;96.00;;;;;;5159164;27;20042;-79
2022/01/11 05:11:03;;;;;;;39.70;23.58;;;0.60;96.00;;;;;;5142098;27;20030;-78
2022/01/11 05:13:31;;;;;;;40.30;21.40;;;0.60;96.00;;;;;;5141428;27;20081;-79
2022/01/11 05:15:59;;;;;;;43.25;22.80;;;0.50;96.00;;;;;;5158720;27;20094;-78
2022/01/11 05:18:25;;;;;;;39.17;21.38;;;0.60;96.00;;;;;;5158139;27;20034;-77
2022/01/11 05:20:51;;;;;;;42.92;22.30;;;0.60;96.00;;;;;;5123516;27;20477;-78
2022/01/11 05:23:17;;;;;;;44.47;22.95;;;0.60;96.00;;;;;;5140586;27;20078;-79
2022/01/11 05:25:43;;;;;;;42.63;23.05;;;0.60;96.00;;;;;;5141016;27;20038;-79
2022/01/11 05:28:09;;;;;;;40.50;21.63;;;0.60;96.00;;;;;;5158618;27;20134;-80
2022/01/11 05:30:35;;;;;;;38.83;20.67;;;0.60;96.00;;;;;;5141220;27;20494;-79
2022/01/11 05:33:00;;;;;;;44.45;21.58;;;0.60;96.00;;;;;;5158177;27;20493;-77
2022/01/11 05:35:27;;;;;;;44.63;21.50;;;0.60;96.00;;;;;;5141131;27;20080;-78
2022/01/11 05:37:53;;;;;;;45.90;22.10;;;0.60;96.00;;;;;;5158389;27;20034;-79
2022/01/11 05:40:20;;;;;;;40.10;20.60;;;0.60;95.90;;;;;;5158507;27;20050;-79
2022/01/11 05:42:49;;;;;;;49.10;23.45;;;0.60;95.80;;;;;;5158300;27;20094;-79
2022/01/11 05:45:16;;;;;;;41.38;21.95;;;0.60;95.70;;;;;;5140981;27;20077;-79
2022/01/11 05:47:42;;;;;;;48.53;22.80;;;0.50;95.70;;;;;;5158153;27;20038;-78
2022/01/11 05:50:10;;;;;;;46.25;22.23;;;0.60;95.70;;;;;;5158146;27;20042;-79
2022/01/11 05:52:42;;;;;;;40.38;21.48;;;0.50;95.60;;;;;;5158326;27;20038;-79
2022/01/11 05:55:10;;;;;;;40.10;22.30;;;0.50;95.70;;;;;;5140983;27;20045;-79
2022/01/11 05:57:36;;;;;;;39.30;20.67;;;0.50;95.50;;;;;;5140881;27;20121;-79
2022/01/11 06:00:07;;;;;;;40.10;21.13;;;0.50;95.50;;;;;;5140505;27;20473;-79
2022/01/11 06:02:33;;;;;;;47.65;21.50;;;0.50;95.60;;;;;;5157942;27;20554;-80
2022/01/11 06:04:59;;;;;;;45.95;22.02;;;0.50;95.50;;;;;;5157634;27;20046;-79
2022/01/11 06:07:24;;;;;;;42.65;21.55;;;0.40;95.50;;;;;;5140950;27;20038;-79
2022/01/11 06:09:50;;;;;;;47.30;23.15;;;0.30;95.70;;;;;;5157842;27;20482;-79
2022/01/11 06:12:16;;;;;;;38.05;21.05;;;0.30;95.70;;;;;;5158174;27;20094;-80
2022/01/11 06:14:41;;;;;;;49.38;23.65;;;0.30;95.80;;;;;;5140587;27;20041;-78
2022/01/11 06:17:07;;;;;;;42.38;20.83;;;0.30;95.80;;;;;;5123749;27;20038;-78
2022/01/11 06:19:34;;;;;;;51.40;23.88;;;0.30;95.80;;;;;;5156607;27;20042;-79
2022/01/11 06:22:00;;;;;;;42.20;20.73;;;0.30;95.80;;;;;;5141013;27;20038;-79
2022/01/11 06:24:26;;;;;;;43.00;21.90;;;0.30;95.80;;;;;;5157452;27;20042;-78
2022/01/11 06:26:52;;;;;;;44.75;22.23;;;0.30;95.70;;;;;;5157487;27;20046;-79
2022/01/11 06:29:18;;;;;;;49.38;24.48;;;0.30;95.60;;;;;;5157685;27;20041;-80
2022/01/11 06:31:43;;;;;;;37.38;19.95;;;0.40;95.60;;;;;;5157347;27;20137;-79
2022/01/11 06:34:10;;;;;;;47.03;23.38;;;0.30;95.70;;;;;;5139848;27;20485;-79
2022/01/11 06:36:36;;;;;;;39.75;21.15;;;0.30;95.70;;;;;;5140327;27;20036;-79
2022/01/11 06:39:02;;;;;;;44.08;21.85;;;0.30;95.70;;;;;;5157444;27;20529;-78
2022/01/11 06:41:28;;;;;;;50.85;24.65;;;0.30;95.70;;;;;;5140149;27;20050;-79
2022/01/11 06:43:54;;;;;;;43.05;23.17;;;0.30;95.70;;;;;;5157250;27;20038;-79
2022/01/11 06:46:23;;;;;;;44.63;23.63;;;0.20;95.80;;;;;;5157143;27;20038;-78
2022/01/11 06:48:50;;;;;;;49.13;24.65;;;0.20;95.80;;;;;;5140386;27;20046;-79
2022/01/11 06:51:16;;;;;;;47.45;24.98;;;0.20;95.90;;;;;;5157056;27;20117;-79
2022/01/11 06:53:42;;;;;;;49.08;24.08;;;0.10;96.10;;;;;;5157044;27;20053;-80
2022/01/11 06:56:08;;;;;;;45.45;23.05;;;0.10;96.20;;;;;;5139727;27;20038;-78
2022/01/11 06:58:33;;;;;;;46.88;23.05;;;0.10;96.20;;;;;;5140180;27;20026;-78
2022/01/11 07:00:59;;;;;;;49.67;23.00;;;0.20;96.20;;;;;;5140082;27;20034;-78
2022/01/11 07:03:25;;;;;;;50.60;25.23;;;0.20;96.30;;;;;;5157142;27;20038;-79
2022/01/11 07:05:51;;;;;;;48.35;24.40;;;0.10;96.40;;;;;;5139863;27;20034;-79
2022/01/11 07:08:17;;;;;;;51.28;26.45;;;0.10;96.50;;;;;;5156779;27;20048;-79
2022/01/11 07:10:42;;;;;;;51.80;26.90;;;0.10;96.50;;;;;;5139718;27;20374;-79
2022/01/11 07:13:08;;;;;;;51.97;25.20;;;0.20;96.40;;;;;;5156824;27;20035;-77
2022/01/11 07:15:34;;;;;;;51.72;23.95;;;0.10;96.40;;;;;;5139524;27;20083;-79
2022/01/11 07:18:06;;;;;;;52.30;25.15;;;0.10;96.50;;;;;;5156966;27;20040;-79
2022/01/11 07:20:31;;;;;;;53.78;28.98;;;0.20;96.30;;;;;;5156847;27;20047;-79
2022/01/11 07:22:57;;;;;;;51.92;26.98;;;0.10;96.40;;;;;;5139774;27;20034;-78
2022/01/11 07:25:23;;;;;;;51.50;25.13;;;0.20;96.30;;;;;;5157113;27;20045;-79
2022/01/11 07:27:48;;;;;;;46.63;24.75;;;0.20;96.40;;;;;;5122588;27;20042;-78
2022/01/11 07:30:14;;;;;;;46.08;23.52;;;0.10;96.30;;;;;;5124029;27;20095;-78
2022/01/11 07:32:40;;;;;;;52.65;26.48;;;0.10;96.40;;;;;;5160636;27;20050;-79
2022/01/11 07:35:06;;;;;;;46.38;23.50;;;0.20;96.30;;;;;;5160501;27;20094;-78
2022/01/11 07:37:31;;;;;;;52.45;25.45;;;0.20;96.20;;;;;;5160709;27;20083;-79
2022/01/11 07:39:57;;;;;;;52.10;24.80;;;0.20;96.30;;;;;;5161086;27;20111;-79
2022/01/11 07:42:23;;;;;;;49.10;26.52;;;0.20;96.40;;;;;;5126350;27;20065;-78
2022/01/11 07:44:51;;;;;;;50.65;26.00;;;0.20;96.40;;;;;;5160616;27;20061;-79
2022/01/11 07:47:18;;;;;;;47.42;24.75;;;0.20;96.60;;;;;;5143568;27;20470;-78
2022/01/11 07:49:44;;;;;;;43.30;24.50;;;0.20;96.50;;;;;;5160591;27;20042;-79
2022/01/11 07:52:10;;;;;;;45.78;25.85;;;0.20;96.40;;;;;;5143453;27;20061;-79
2022/01/11 07:54:35;;;;;;;51.22;24.83;;;0.20;96.50;;;;;;5160637;27;20125;-78
2022/01/11 07:57:01;;;;;;;48.58;26.63;;;0.20;96.40;;;;;;5160273;27;20087;-78
2022/01/11 07:59:27;;;;;;;53.13;26.23;;;0.20;96.50;;;;;;5160382;27;20035;-79
2022/01/11 08:01:53;;;;;;;49.75;26.70;;;0.20;96.40;;;;;;5160380;27;20034;-78
2022/01/11 08:04:19;;;;;;;50.88;27.17;;;0.30;96.40;;;;;;5160082;27;20046;-80
2022/01/11 08:06:44;;;;;;;52.67;30.27;;;0.30;96.40;;;;;;5142775;27;20121;-79
2022/01/11 08:09:10;;;;;;;50.17;26.50;;;0.30;96.40;;;;;;5142819;27;20064;-79
2022/01/11 08:11:36;;;;;;;53.70;27.90;;;0.30;96.40;;;;;;5160063;27;20038;-79
2022/01/11 08:14:02;;;;;;;54.40;27.17;;;0.30;96.60;;;;;;5142678;27;20041;-80
2022/01/11 08:16:28;;;;;;;56.97;27.63;;;0.30;96.60;;;;;;5159977;27;20035;-79
2022/01/11 08:18:53;;;;;;;50.67;26.58;;;0.30;96.40;;;;;;5160283;27;20030;-80
2022/01/11 08:21:19;;;;;;;50.17;27.08;;;0.30;96.40;;;;;;5160195;27;20125;-80
2022/01/11 08:23:45;;;;;;;55.25;26.92;;;0.30;96.50;;;;;;5142647;27;20390;-79
2022/01/11 08:26:11;;;;;;;55.45;26.58;;;0.30;96.60;;;;;;5160074;27;20098;-80
2022/01/11 08:28:36;;;;;;;58.85;28.85;;;0.20;96.70;;;;;;5142536;27;20039;-79
2022/01/11 08:31:02;;;;;;;59.95;28.17;;;0.30;96.60;;;;;;5142670;27;20050;-80
2022/01/11 08:33:28;;;;;;;55.55;27.30;;;0.20;96.40;;;;;;5142728;27;20490;-79
2022/01/11 08:35:53;;;;;;;57.25;29.23;;;0.30;96.50;;;;;;5142223;27;20034;-79
2022/01/11 08:38:19;;;;;;;61.97;30.13;;;0.30;96.40;;;;;;5142399;27;20094;-80
2022/01/11 08:40:45;;;;;;;61.10;28.58;;;0.20;96.80;;;;;;5159422;27;20030;-80
2022/01/11 08:43:14;;;;;;;63.97;31.35;;;0.20;96.70;;;;;;5141457;27;20034;-80
2022/01/11 08:45:40;;;;;;;72.60;32.35;;;0.20;96.80;;;;;;5142115;27;20045;-80
2022/01/11 08:48:06;;;;;;;65.13;31.17;;;0.20;96.90;;;;;;5159668;27;20039;-79
2022/01/11 08:50:32;;;;;;;71.57;31.15;;;0.20;96.70;;;;;;5159316;27;20038;-80
2022/01/11 08:53:00;;;;;;;65.40;30.48;;;0.20;97.00;;;;;;5142115;27;20038;-80
2022/01/11 08:55:26;;;;;;;68.38;30.77;;;0.20;97.00;;;;;;5159225;27;20042;-80
2022/01/11 08:57:51;;;;;;;70.70;32.03;;;0.20;97.10;;;;;;5141929;27;20030;-79
2022/01/11 09:00:18;;;;;;;70.47;32.47;;;0.10;97.10;;;;;;5159239;27;20057;-80
2022/01/11 09:02:46;;;;;;;78.18;34.50;;;0.10;97.00;;;;;;5141934;27;20038;-80
2022/01/11 09:05:13;;;;;;;67.90;30.88;;;0.10;97.20;;;;;;5141791;27;20069;-80
2022/01/11 09:07:39;;;;;;;70.93;31.15;;;0.10;97.00;;;;;;5158965;27;20054;-80
2022/01/11 09:10:07;;;;;;;71.82;33.92;;;0.20;96.90;;;;;;5159327;27;20042;-80
2022/01/11 09:12:33;;;;;;;69.50;32.05;;;0.20;97.10;;;;;;5159252;27;20490;-79
2022/01/11 09:14:59;;;;;;;88.35;36.58;;;0.20;97.00;;;;;;5141500;27;20102;-79
2022/01/11 09:17:24;;;;;;;79.20;33.70;;;0.20;97.00;;;;;;5124559;27;20406;-80
2022/01/11 09:19:50;;;;;;;71.40;31.27;;;0.20;97.10;;;;;;5141893;27;20087;-79
2022/01/11 09:22:17;;;;;;;76.60;31.33;;;0.20;97.20;;;;;;5124658;27;20034;-79
2022/01/11 09:24:42;;;;;;;67.57;31.15;;;0.10;97.20;;;;;;5158737;27;20042;-79
2022/01/11 09:27:08;;;;;;;65.65;29.92;;;0.10;97.20;;;;;;5141430;27;20034;-79
2022/01/11 09:29:38;;;;;;;72.32;34.20;;;0.20;97.20;;;;;;5141553;27;20038;-80
2022/01/11 09:32:06;;;;;;;63.50;32.92;;;0.20;97.00;;;;;;5141063;27;20053;-79
2022/01/11 09:34:32;;;;;;;85.65;38.35;;;0.20;97.10;;;;;;5158452;27;20046;-79
2022/01/11 09:36:58;;;;;;;71.10;33.10;;;0.20;97.00;;;;;;5158396;27;20087;-80
2022/01/11 09:39:23;;;;;;;79.03;33.25;;;0.20;97.00;;;;;;5158506;27;20038;-80
2022/01/11 09:41:49;;;;;;;60.13;29.98;;;0.20;97.10;;;;;;5141091;27;20077;-79
2022/01/11 09:44:16;;;;;;;80.13;35.15;;;0.20;97.20;;;;;;5141326;27;20034;-79
2022/01/11 09:46:42;;;;;;;69.85;33.03;;;0.20;97.40;;;;;;5141010;27;20042;-79
2022/01/11 09:49:08;;;;;;;71.72;32.53;;;0.20;97.20;;;;;;5158254;27;20117;-79
2022/01/11 09:51:36;;;;;;;69.03;31.85;;;0.20;97.30;;;;;;5158422;27;20478;-80
2022/01/11 09:54:05;;;;;;;68.60;32.47;;;0.20;97.30;;;;;;5140096;27;20493;-79
2022/01/11 09:56:35;;;;;;;72.55;31.75;;;0.30;97.30;;;;;;5158284;27;20129;-79
2022/01/11 09:59:01;;;;;;;77.15;33.90;;;0.30;97.30;;;;;;5140802;27;20045;-80
2022/01/11 10:01:26;;;;;;;67.45;31.20;;;0.30;97.20;;;;;;5157964;27;20030;-79
2022/01/11 10:04:10;;;;;;;71.18;32.88;;;0.40;97.10;;;;;;5157873;27;20038;-80
2022/01/11 10:06:39;;;;;;;58.15;29.70;;;0.40;97.30;;;;;;5140987;27;20034;-80
2022/01/11 10:09:21;;;;;;;68.97;32.83;;;0.40;97.10;;;;;;5158086;27;20034;-79
2022/01/11 10:11:50;;;;;;;65.15;33.33;;;0.40;97.20;;;;;;5158049;27;20034;-79
2022/01/11 10:14:37;;;;;;;69.05;31.80;;;0.50;97.00;;;;;;5157639;27;20039;-79
2022/01/11 10:17:24;;;;;;;71.97;34.70;;;0.50;97.00;;;;;;5157663;27;20034;-80
2022/01/11 10:20:02;;;;;;;67.50;31.77;;;0.50;97.00;;;;;;5140400;27;20031;-79
2022/01/11 10:22:30;;;;;;;67.45;31.33;;;0.60;97.10;;;;;;5157577;27;20073;-80
2022/01/11 10:24:57;;;;;;;62.80;32.30;;;0.60;97.10;;;;;;5157575;27;20077;-79
2022/01/11 10:27:31;;;;;;;60.42;31.92;;;0.60;97.10;;;;;;5140272;27;20046;-79
2022/01/11 10:30:07;;;;;;;64.60;31.50;;;0.60;97.00;;;;;;5157829;27;20367;-80
2022/01/11 10:32:35;;;;;;;64.22;30.92;;;0.70;96.90;;;;;;5157224;27;20061;-79
2022/01/11 10:35:18;;;;;;;58.92;30.10;;;0.70;97.00;;;;;;5157379;27;20046;-79
2022/01/11 10:37:46;;;;;;;60.58;28.73;;;0.70;96.90;;;;;;5140319;27;20038;-79
2022/01/11 10:40:16;;;;;;;61.92;30.20;;;0.80;96.90;;;;;;5157341;27;20034;-80
2022/01/11 10:42:53;;;;;;;55.80;28.98;;;0.80;96.80;;;;;;5157109;27;20117;-80
2022/01/11 10:45:23;;;;;;;55.90;27.25;;;0.80;96.80;;;;;;5140138;27;20033;-79
2022/01/11 10:48:07;;;;;;;56.50;27.50;;;0.90;96.80;;;;;;5139887;27;20042;-80
2022/01/11 10:50:37;;;;;;;42.20;22.47;;;0.90;96.60;;;;;;5140242;27;20038;-80
2022/01/11 10:53:24;;;;;;;56.78;28.70;;;0.90;96.60;;;;;;5139851;27;20282;-79
2022/01/11 10:55:53;;;;;;;54.63;28.15;;;1.00;96.50;;;;;;5157124;27;20065;-79
2022/01/11 10:58:19;;;;;;;51.53;26.52;;;1.00;96.40;;;;;;5157319;27;20111;-79
2022/01/11 11:00:47;;;;;;;55.85;28.17;;;1.00;96.50;;;;;;5157059;27;20034;-80
2022/01/11 11:03:16;;;;;;;51.25;26.95;;;1.10;96.40;;;;;;5157260;27;20053;-79
2022/01/11 11:05:51;;;;;;;54.80;27.75;;;1.10;96.40;;;;;;5156617;27;20049;-81
2022/01/11 11:08:20;;;;;;;54.13;27.80;;;1.20;96.40;;;;;;5139518;27;20518;-80
2022/01/11 11:11:07;;;;;;;52.72;26.88;;;1.20;96.40;;;;;;5156971;27;20089;-80
2022/01/11 11:13:44;;;;;;;47.53;26.27;;;1.40;96.40;;;;;;5156922;27;20046;-81
2022/01/11 11:16:18;;;;;;;43.75;22.88;;;1.40;96.30;;;;;;5139367;27;20049;-80
2022/01/11 11:18:47;;;;;;;44.63;23.90;;;1.50;96.20;;;;;;5156862;27;20146;-79
2022/01/11 11:21:27;;;;;;;43.40;22.60;;;1.50;96.00;;;;;;5156848;27;20121;-80
2022/01/11 11:24:05;;;;;;;42.00;23.73;;;1.60;96.00;;;;;;5157068;27;20042;-80
2022/01/11 11:26:49;;;;;;;40.70;22.67;;;1.60;95.90;;;;;;5139443;27;20038;-80
2022/01/11 11:29:17;;;;;;;47.78;24.20;;;1.60;95.80;;;;;;5156710;27;20045;-79
2022/01/11 11:31:43;;;;;;;43.20;23.33;;;1.70;95.60;;;;;;5156668;27;20439;-78
2022/01/11 11:34:11;;;;;;;42.88;23.67;;;1.70;95.40;;;;;;5122521;27;20043;-80
2022/01/11 11:36:41;;;;;;;43.72;22.55;;;1.80;95.40;;;;;;5139269;27;20094;-79
2022/01/11 11:39:22;;;;;;;41.00;23.63;;;1.80;95.40;;;;;;5122475;27;20081;-81
2022/01/11 11:41:50;;;;;;;39.20;22.17;;;1.80;95.30;;;;;;5139358;27;20038;-79
2022/01/11 11:44:21;;;;;;;42.22;23.42;;;1.90;95.20;;;;;;5139660;27;20478;-79
2022/01/11 11:46:52;;;;;;;44.20;23.67;;;1.90;94.80;;;;;;5139222;27;20482;-79
2022/01/11 11:49:43;;;;;;;43.30;22.95;;;2.00;95.10;;;;;;5139607;27;20382;-80
2022/01/11 11:52:39;;;;;;;43.08;22.40;;;2.00;95.00;;;;;;5156393;27;20038;-79
2022/01/11 11:55:24;;;;;;;43.67;22.95;;;2.10;94.50;;;;;;5130291;27;20042;-80
2022/01/11 11:58:02;;;;;;;46.70;23.67;;;2.10;94.50;;;;;;5139146;27;20038;-80
2022/01/11 12:00:37;;;;;;;39.08;19.90;;;2.10;94.30;;;;;;5156450;27;20034;-79
2022/01/11 12:03:22;;;;;;;40.40;23.05;;;2.20;94.50;;;;;;5139156;27;20039;-79
2022/01/11 12:05:49;;;;;;;40.15;21.05;;;2.20;94.30;;;;;;5139490;27;20045;-80
2022/01/11 12:08:24;;;;;;;41.63;22.67;;;2.20;94.20;;;;;;5139238;27;20038;-80
2022/01/11 12:10:53;;;;;;;42.25;22.38;;;2.20;94.20;;;;;;5139095;27;20128;-79
2022/01/11 12:13:47;;;;;;;36.95;20.77;;;2.30;94.40;;;;;;5139022;27;20038;-79
2022/01/11 12:16:25;;;;;;;39.55;21.20;;;2.30;94.10;;;;;;5156134;27;20594;-80
2022/01/11 12:18:51;;;;;;;38.40;21.08;;;2.30;94.30;;;;;;5160186;27;20034;-79
2022/01/11 12:21:17;;;;;;;40.92;22.55;;;2.30;94.10;;;;;;5160013;27;20041;-80
2022/01/11 12:23:48;;;;;;;39.47;21.48;;;2.30;94.10;;;;;;5159677;27;20034;-81
2022/01/11 12:26:21;;;;;;;35.90;20.92;;;2.40;94.20;;;;;;5159749;27;20042;-79
2022/01/11 12:29:05;;;;;;;40.85;21.00;;;2.40;94.00;;;;;;5159914;27;20042;-80
2022/01/11 12:31:34;;;;;;;42.80;22.67;;;2.50;94.20;;;;;;5159686;27;20400;-79
2022/01/11 12:34:00;;;;;;;46.83;26.02;;;2.50;94.00;;;;;;5159697;27;20134;-79
2022/01/11 12:37:02;;;;;;;40.08;21.83;;;2.50;93.80;;;;;;5142230;27;20038;-80
2022/01/11 12:39:31;;;;;;;39.47;21.25;;;2.50;93.70;;;;;;5142494;27;20441;-80
2022/01/11 12:41:59;;;;;;;34.35;18.50;;;2.50;93.60;;;;;;5159791;27;20409;-78
2022/01/11 12:45:35;;;;;;;36.63;19.60;;;2.50;93.60;;;;;;5159879;27;20099;-78